createdAt,value
2018-08-27T00:01:03.518Z,2.83
2018-08-27T00:03:30.631Z,2.20
2018-08-27T00:05:57.771Z,1.70
2018-08-27T00:08:24.905Z,4.27
2018-08-27T00:10:52.402Z,2.43
2018-08-27T00:13:19.533Z,1.70
2018-08-27T00:15:46.693Z,1.60
2018-08-27T00:18:13.858Z,2.07
2018-08-27T00:20:40.979Z,2.70
2018-08-27T00:23:08.207Z,3.60
2018-08-27T00:25:35.345Z,1.90
2018-08-27T00:28:02.479Z,1.80
2018-08-27T00:30:29.604Z,3.00
2018-08-27T00:32:56.788Z,2.20
2018-08-27T00:35:23.929Z,1.80
2018-08-27T00:37:51.165Z,2.27
2018-08-27T00:40:18.309Z,3.27
2018-08-27T00:42:45.427Z,1.80
2018-08-27T00:45:12.588Z,1.73
2018-08-27T00:47:39.712Z,1.77
2018-08-27T00:50:06.877Z,2.63
2018-08-27T00:52:34.004Z,1.97
2018-08-27T00:55:01.145Z,2.20
2018-08-27T00:57:28.293Z,2.00
2018-08-27T00:59:55.442Z,2.40
2018-08-27T01:02:22.592Z,2.07
2018-08-27T01:04:49.728Z,1.70
2018-08-27T01:07:16.921Z,2.10
2018-08-27T01:09:44.048Z,2.10
2018-08-27T01:12:11.333Z,4.73
2018-08-27T01:14:38.449Z,1.90
2018-08-27T01:17:05.601Z,1.70
2018-08-27T01:19:32.741Z,3.23
2018-08-27T01:21:59.889Z,1.90
2018-08-27T01:24:27.045Z,1.80
2018-08-27T01:26:54.189Z,2.00
2018-08-27T01:29:21.332Z,2.30
2018-08-27T01:31:53.814Z,3.07
2018-08-27T01:34:21.765Z,2.23
2018-08-27T01:36:48.893Z,2.33
2018-08-27T01:39:17.033Z,4.50
2018-08-27T01:41:44.249Z,2.10
2018-08-27T01:44:11.360Z,3.90
2018-08-27T01:46:38.509Z,1.90
2018-08-27T01:49:05.757Z,2.90
2018-08-27T01:51:32.903Z,2.40
2018-08-27T01:54:00.033Z,4.00
2018-08-27T01:56:27.169Z,3.23
2018-08-27T01:58:54.313Z,2.73
2018-08-27T02:01:22.478Z,2.37
2018-08-27T02:03:49.620Z,3.73
2018-08-27T02:06:16.861Z,2.37
2018-08-27T02:08:43.989Z,5.67
2018-08-27T02:11:11.325Z,6.33
2018-08-27T02:13:38.461Z,2.13
2018-08-27T02:16:05.656Z,2.00
2018-08-27T02:18:32.797Z,2.33
2018-08-27T02:20:59.937Z,2.30
2018-08-27T02:23:27.056Z,2.20
2018-08-27T02:25:54.213Z,2.00
2018-08-27T02:28:21.357Z,2.10
2018-08-27T02:30:48.505Z,2.50
2018-08-27T02:33:15.672Z,1.90
2018-08-27T02:35:42.857Z,1.93
2018-08-27T02:38:10.004Z,2.00
2018-08-27T02:40:37.145Z,2.60
2018-08-27T02:43:04.295Z,1.90
2018-08-27T02:45:31.729Z,2.23
2018-08-27T02:47:58.881Z,3.27
2018-08-27T02:50:26.049Z,1.90
2018-08-27T02:52:53.279Z,1.93
2018-08-27T02:55:20.410Z,2.03
2018-08-27T02:57:47.675Z,2.80
2018-08-27T03:00:14.818Z,1.90
2018-08-27T03:02:41.932Z,2.10
2018-08-27T03:05:09.903Z,2.03
2018-08-27T03:07:37.054Z,2.20
2018-08-27T03:10:04.233Z,2.03
2018-08-27T03:12:31.364Z,2.07
2018-08-27T03:14:58.504Z,2.07
2018-08-27T03:17:25.635Z,2.43
2018-08-27T03:19:52.761Z,2.07
2018-08-27T03:22:19.905Z,2.50
2018-08-27T03:24:47.074Z,3.30
2018-08-27T03:27:14.287Z,2.77
2018-08-27T03:29:41.408Z,2.90
2018-08-27T03:32:08.536Z,3.40
2018-08-27T03:34:35.666Z,2.20
2018-08-27T03:37:02.822Z,2.90
2018-08-27T03:39:29.949Z,2.10
2018-08-27T03:41:57.083Z,2.30
2018-08-27T03:44:24.240Z,2.00
2018-08-27T03:46:51.364Z,2.00
2018-08-27T03:49:18.566Z,1.90
2018-08-27T03:51:46.322Z,2.43
2018-08-27T03:54:13.524Z,2.00
2018-08-27T03:56:40.712Z,2.07
2018-08-27T03:59:07.904Z,2.20
2018-08-27T04:01:35.040Z,2.40
2018-08-27T04:04:02.190Z,3.30
2018-08-27T04:06:29.335Z,2.40
2018-08-27T04:08:56.465Z,2.30
2018-08-27T04:11:23.619Z,2.20
2018-08-27T04:13:50.743Z,4.30
2018-08-27T04:16:17.912Z,2.20
2018-08-27T04:18:45.073Z,3.60
2018-08-27T04:21:12.209Z,1.73
2018-08-27T04:23:39.340Z,3.97
2018-08-27T04:26:06.616Z,1.90
2018-08-27T04:28:33.777Z,2.50
2018-08-27T04:31:00.909Z,2.00
2018-08-27T04:33:28.037Z,1.90
2018-08-27T04:35:55.170Z,1.90
2018-08-27T04:38:22.304Z,2.10
2018-08-27T04:40:49.465Z,2.90
2018-08-27T04:43:16.580Z,2.30
2018-08-27T04:45:43.768Z,2.60
2018-08-27T04:48:11.057Z,2.07
2018-08-27T04:50:38.188Z,2.80
2018-08-27T04:53:05.326Z,4.10
2018-08-27T04:55:32.470Z,2.00
2018-08-27T04:57:59.605Z,2.00
2018-08-27T05:00:31.281Z,2.83
2018-08-27T05:02:58.628Z,3.43
2018-08-27T05:05:25.809Z,2.80
2018-08-27T05:07:53.022Z,2.20
2018-08-27T05:10:20.182Z,3.83
2018-08-27T05:12:47.309Z,3.23
2018-08-27T05:15:14.437Z,5.60
2018-08-27T05:17:41.576Z,1.90
2018-08-27T05:20:09.064Z,2.10
2018-08-27T05:22:36.201Z,1.97
2018-08-27T05:25:03.336Z,2.27
2018-08-27T05:27:30.473Z,2.50
2018-08-27T05:29:57.626Z,2.10
2018-08-27T05:32:24.760Z,2.50
2018-08-27T05:34:51.925Z,2.03
2018-08-27T05:37:19.069Z,2.90
2018-08-27T05:39:46.204Z,2.10
2018-08-27T05:42:13.328Z,3.27
2018-08-27T05:44:40.515Z,2.37
2018-08-27T05:47:07.873Z,1.90
2018-08-27T05:49:35.004Z,2.90
2018-08-27T05:52:02.148Z,2.00
2018-08-27T05:54:29.272Z,2.00
2018-08-27T05:56:56.428Z,2.73
2018-08-27T05:59:24.000Z,2.10
2018-08-27T06:01:51.719Z,2.20
2018-08-27T06:04:18.794Z,2.80
2018-08-27T06:06:45.923Z,3.23
2018-08-27T06:09:13.219Z,2.90
2018-08-27T06:11:40.744Z,2.37
2018-08-27T06:14:07.888Z,3.83
2018-08-27T06:16:35.073Z,2.10
2018-08-27T06:19:02.474Z,3.13
2018-08-27T06:21:29.635Z,2.13
2018-08-27T06:23:56.805Z,2.27
2018-08-27T06:26:23.941Z,6.27
2018-08-27T06:28:51.069Z,2.70
2018-08-27T06:31:18.255Z,2.03
2018-08-27T06:33:45.425Z,2.10
2018-08-27T06:36:12.664Z,3.03
2018-08-27T06:38:40.976Z,3.93
2018-08-27T06:41:08.107Z,2.33
2018-08-27T06:43:35.249Z,2.20
2018-08-27T06:46:02.679Z,1.93
2018-08-27T06:48:29.931Z,2.53
2018-08-27T06:50:57.260Z,2.50
2018-08-27T06:53:24.437Z,2.73
2018-08-27T06:55:51.621Z,2.20
2018-08-27T06:58:18.796Z,2.00
2018-08-27T07:00:45.975Z,2.00
2018-08-27T07:03:13.195Z,4.60
2018-08-27T07:05:40.301Z,2.27
2018-08-27T07:08:07.436Z,2.87
2018-08-27T07:10:34.611Z,2.07
2018-08-27T07:13:01.742Z,1.90
2018-08-27T07:15:28.873Z,2.63
2018-08-27T07:17:56.031Z,1.87
2018-08-27T07:20:23.432Z,1.83
2018-08-27T07:22:50.513Z,2.20
2018-08-27T07:25:17.668Z,2.20
2018-08-27T07:27:44.796Z,2.20
2018-08-27T07:30:11.974Z,1.93
2018-08-27T07:32:39.109Z,2.10
2018-08-27T07:35:06.509Z,3.93
2018-08-27T07:37:33.956Z,1.80
2018-08-27T07:40:01.149Z,2.80
2018-08-27T07:42:28.329Z,2.17
2018-08-27T07:44:55.493Z,1.90
2018-08-27T07:47:23.137Z,2.00
2018-08-27T07:49:50.264Z,2.23
2018-08-27T07:52:17.411Z,3.53
2018-08-27T07:54:44.533Z,2.30
2018-08-27T07:57:11.688Z,2.83
2018-08-27T07:59:38.819Z,1.80
2018-08-27T08:02:05.977Z,3.90
2018-08-27T08:04:33.130Z,1.77
2018-08-27T08:07:00.265Z,1.90
2018-08-27T08:09:27.396Z,1.77
2018-08-27T08:11:54.566Z,1.70
2018-08-27T08:14:21.684Z,1.97
2018-08-27T08:16:48.840Z,1.60
2018-08-27T08:19:15.978Z,2.97
2018-08-27T08:21:43.117Z,2.90
2018-08-27T08:24:10.256Z,2.20
2018-08-27T08:26:37.400Z,1.70
2018-08-27T08:29:04.604Z,1.90
2018-08-27T08:31:31.828Z,2.20
2018-08-27T08:33:58.960Z,1.47
2018-08-27T08:36:26.115Z,3.47
2018-08-27T08:38:53.360Z,5.33
2018-08-27T08:41:20.526Z,1.80
2018-08-27T08:43:47.816Z,1.73
2018-08-27T08:46:15.264Z,1.57
2018-08-27T08:48:42.425Z,1.80
2018-08-27T08:51:09.586Z,1.57
2018-08-27T08:53:36.769Z,1.17
2018-08-27T08:56:03.836Z,1.97
2018-08-27T08:58:31.049Z,1.60
2018-08-27T09:00:58.201Z,1.50
2018-08-27T09:03:25.339Z,1.40
2018-08-27T09:05:52.486Z,1.30
2018-08-27T09:08:19.801Z,1.00
2018-08-27T09:10:46.852Z,1.60
2018-08-27T09:13:14.003Z,1.10
2018-08-27T09:15:41.145Z,3.47
2018-08-27T09:18:08.276Z,1.27
2018-08-27T09:20:35.625Z,1.30
2018-08-27T09:23:02.762Z,1.33
2018-08-27T09:25:29.885Z,1.00
2018-08-27T09:27:57.045Z,1.80
2018-08-27T09:30:24.177Z,1.10
2018-08-27T09:32:51.308Z,1.20
2018-08-27T09:35:18.436Z,1.90
2018-08-27T09:37:45.577Z,1.13
2018-08-27T09:40:12.988Z,1.43
2018-08-27T09:42:40.139Z,1.20
2018-08-27T09:45:07.274Z,2.10
2018-08-27T09:47:34.415Z,1.17
2018-08-27T09:50:01.548Z,1.10
2018-08-27T09:52:28.680Z,3.03
2018-08-27T09:54:55.808Z,1.13
2018-08-27T09:57:22.953Z,2.10
2018-08-27T09:59:50.089Z,1.00
2018-08-27T10:02:17.241Z,0.97
2018-08-27T10:04:44.376Z,1.30
2018-08-27T10:07:11.716Z,0.93
2018-08-27T10:09:38.828Z,4.03
2018-08-27T10:12:05.993Z,1.07
2018-08-27T10:14:33.144Z,1.53
2018-08-27T10:17:00.276Z,2.23
2018-08-27T10:19:27.411Z,1.10
2018-08-27T10:21:54.545Z,6.77
2018-08-27T10:24:21.694Z,1.40
2018-08-27T10:26:48.893Z,1.47
2018-08-27T10:29:16.046Z,1.80
2018-08-27T10:31:43.175Z,1.80
2018-08-27T10:34:10.325Z,1.30
2018-08-27T10:36:37.463Z,1.60
2018-08-27T10:39:05.681Z,1.93
2018-08-27T10:41:32.815Z,2.47
2018-08-27T10:43:59.944Z,1.70
2018-08-27T10:46:27.261Z,2.20
2018-08-27T10:48:54.400Z,2.10
2018-08-27T10:51:21.537Z,5.57
2018-08-27T10:53:48.693Z,3.20
2018-08-27T10:56:15.884Z,4.37
2018-08-27T10:58:43.026Z,2.97
2018-08-27T11:01:10.148Z,4.80
2018-08-27T11:03:37.287Z,5.70
2018-08-27T11:06:04.416Z,7.30
2018-08-27T11:08:31.562Z,6.63
2018-08-27T11:10:58.781Z,10.20
2018-08-27T11:13:25.922Z,11.43
2018-08-27T11:15:53.124Z,5.50
2018-08-27T11:18:20.252Z,14.30
2018-08-27T11:20:47.396Z,7.20
2018-08-27T11:23:14.561Z,5.83
2018-08-27T11:25:41.728Z,5.70
2018-08-27T11:28:08.889Z,5.90
2018-08-27T11:30:36.093Z,4.13
2018-08-27T11:33:03.322Z,4.57
2018-08-27T11:35:32.987Z,6.70
2018-08-27T11:38:00.133Z,10.03
2018-08-27T11:40:27.322Z,5.63
2018-08-27T11:42:54.464Z,4.80
2018-08-27T11:45:21.598Z,5.00
2018-08-27T11:47:49.200Z,8.20
2018-08-27T11:50:16.428Z,10.77
2018-08-27T11:52:44.532Z,10.23
2018-08-27T11:55:11.790Z,10.73
2018-08-27T11:57:39.154Z,10.50
2018-08-27T12:00:07.134Z,8.67
2018-08-27T12:02:34.260Z,8.60
2018-08-27T12:05:01.677Z,11.57
2018-08-27T12:07:28.841Z,9.93
2018-08-27T12:09:55.991Z,10.23
2018-08-27T12:12:23.997Z,11.00
2018-08-27T12:14:51.133Z,12.77
2018-08-27T12:17:18.276Z,11.80
2018-08-27T12:19:45.421Z,14.73
2018-08-27T12:22:13.150Z,15.20
2018-08-27T12:24:40.345Z,14.00
2018-08-27T12:27:07.488Z,17.30
2018-08-27T12:29:34.628Z,12.00
2018-08-27T12:32:01.874Z,10.93
2018-08-27T12:34:29.017Z,10.00
2018-08-27T12:36:56.218Z,10.97
2018-08-27T12:39:23.346Z,15.40
2018-08-27T12:41:50.481Z,11.23
2018-08-27T12:44:17.649Z,12.03
2018-08-27T12:46:44.776Z,8.67
2018-08-27T12:49:11.917Z,9.53
2018-08-27T12:51:39.039Z,10.17
2018-08-27T12:54:06.196Z,9.10
2018-08-27T12:56:33.336Z,8.13
2018-08-27T12:59:00.485Z,9.80
2018-08-27T13:01:27.620Z,11.97
2018-08-27T13:03:54.803Z,8.97
2018-08-27T13:06:21.951Z,7.30
2018-08-27T13:08:49.113Z,7.90
2018-08-27T13:11:16.309Z,7.00
2018-08-27T13:13:43.404Z,9.93
2018-08-27T13:16:10.633Z,9.30
2018-08-27T13:18:37.800Z,9.20
2018-08-27T13:21:08.745Z,9.60
2018-08-27T13:23:36.288Z,9.10
2018-08-27T13:26:03.528Z,9.53
2018-08-27T13:28:30.752Z,8.53
2018-08-27T13:30:57.917Z,15.23
2018-08-27T13:33:25.064Z,11.77
2018-08-27T13:35:52.222Z,9.90
2018-08-27T13:38:19.394Z,10.07
2018-08-27T13:40:46.552Z,8.53
2018-08-27T13:43:13.708Z,10.00
2018-08-27T13:45:40.831Z,8.43
2018-08-27T13:48:07.997Z,8.90
2018-08-27T13:50:35.125Z,6.33
2018-08-27T13:53:02.278Z,7.00
2018-08-27T13:55:29.450Z,7.20
2018-08-27T13:57:56.643Z,7.97
2018-08-27T14:00:25.738Z,4.73
2018-08-27T14:02:53.049Z,6.17
2018-08-27T14:05:20.530Z,8.60
2018-08-27T14:07:47.628Z,5.50
2018-08-27T14:10:14.786Z,5.23
2018-08-27T14:12:45.938Z,8.93
2018-08-27T14:15:13.101Z,8.67
2018-08-27T14:17:40.282Z,7.60
2018-08-27T14:20:07.632Z,6.47
2018-08-27T14:22:34.605Z,8.10
2018-08-27T14:25:01.751Z,9.40
2018-08-27T14:27:31.797Z,6.83
2018-08-27T14:30:01.174Z,8.53
2018-08-27T14:32:28.375Z,8.57
2018-08-27T14:34:55.543Z,9.37
2018-08-27T14:37:22.685Z,8.47
2018-08-27T14:39:49.879Z,9.87
2018-08-27T14:42:17.215Z,6.43
2018-08-27T14:44:44.347Z,7.20
2018-08-27T14:47:12.620Z,6.10
2018-08-27T14:49:39.904Z,6.30
2018-08-27T14:52:07.433Z,11.67
2018-08-27T14:54:34.573Z,9.03
2018-08-27T14:57:01.807Z,9.87
2018-08-27T14:59:28.968Z,10.43
2018-08-27T15:01:56.118Z,9.30
2018-08-27T15:04:23.292Z,9.63
2018-08-27T15:06:52.556Z,9.13
2018-08-27T15:09:21.105Z,8.17
2018-08-27T15:11:51.332Z,6.50
2018-08-27T15:14:18.652Z,7.80
2018-08-27T15:16:45.874Z,11.13
2018-08-27T15:19:12.997Z,6.03
2018-08-27T15:21:40.183Z,9.83
2018-08-27T15:24:07.549Z,9.60
2018-08-27T15:26:34.716Z,7.30
2018-08-27T15:29:01.885Z,8.33
2018-08-27T15:31:29.067Z,8.47
2018-08-27T15:33:56.204Z,10.90
2018-08-27T15:36:23.391Z,11.63
2018-08-27T15:38:50.666Z,10.20
2018-08-27T15:41:17.807Z,7.70
2018-08-27T15:43:44.972Z,7.00
2018-08-27T15:46:17.550Z,11.03
2018-08-27T15:48:44.814Z,7.97
2018-08-27T15:51:12.057Z,12.00
2018-08-27T15:53:39.220Z,8.10
2018-08-27T15:56:06.362Z,7.97
2018-08-27T15:58:33.495Z,10.43
2018-08-27T16:01:00.629Z,8.37
2018-08-27T16:03:27.782Z,10.50
2018-08-27T16:05:54.992Z,11.17
2018-08-27T16:08:22.068Z,12.93
2018-08-27T16:10:49.260Z,7.70
2018-08-27T16:13:16.437Z,9.40
2018-08-27T16:15:43.698Z,7.33
2018-08-27T16:18:10.833Z,14.53
2018-08-27T16:20:37.964Z,10.07
2018-08-27T16:23:05.108Z,8.67
2018-08-27T16:25:32.353Z,11.40
2018-08-27T16:27:59.477Z,13.30
2018-08-27T16:30:26.652Z,9.23
2018-08-27T16:32:53.796Z,14.60
2018-08-27T16:35:20.978Z,9.23
2018-08-27T16:37:48.207Z,11.43
2018-08-27T16:40:15.384Z,10.90
2018-08-27T16:42:42.525Z,12.10
2018-08-27T16:45:09.697Z,8.23
2018-08-27T16:47:36.865Z,14.67
2018-08-27T16:50:06.193Z,13.17
2018-08-27T16:52:34.216Z,9.63
2018-08-27T16:55:01.769Z,10.53
2018-08-27T16:57:28.985Z,10.60
2018-08-27T16:59:56.174Z,7.30
2018-08-27T17:02:23.346Z,7.37
2018-08-27T17:04:50.509Z,9.07
2018-08-27T17:07:17.709Z,8.40
2018-08-27T17:09:44.885Z,15.60
2018-08-27T17:12:12.025Z,12.43
2018-08-27T17:14:39.147Z,7.77
2018-08-27T17:17:06.312Z,11.90
2018-08-27T17:19:33.472Z,7.40
2018-08-27T17:22:00.669Z,10.70
2018-08-27T17:24:27.900Z,7.27
2018-08-27T17:26:55.040Z,6.60
2018-08-27T17:29:22.221Z,12.33
2018-08-27T17:31:49.355Z,7.47
2018-08-27T17:34:16.612Z,6.90
2018-08-27T17:36:44.237Z,9.73
2018-08-27T17:39:12.040Z,8.03
2018-08-27T17:41:39.941Z,10.13
2018-08-27T17:44:07.385Z,13.33
2018-08-27T17:46:34.527Z,7.10
2018-08-27T17:49:02.296Z,10.17
2018-08-27T17:51:29.484Z,11.23
2018-08-27T17:53:56.625Z,16.20
2018-08-27T17:56:23.775Z,7.87
2018-08-27T17:58:50.920Z,11.70
2018-08-27T18:01:18.088Z,10.40
2018-08-27T18:03:45.264Z,9.33
2018-08-27T18:06:12.407Z,10.13
2018-08-27T18:08:39.545Z,10.47
2018-08-27T18:11:06.685Z,11.97
2018-08-27T18:13:33.830Z,7.13
2018-08-27T18:16:00.997Z,12.27
2018-08-27T18:18:28.137Z,10.83
2018-08-27T18:20:55.293Z,7.93
2018-08-27T18:23:28.005Z,8.87
2018-08-27T18:25:55.804Z,6.13
2018-08-27T18:28:24.532Z,9.83
2018-08-27T18:30:54.018Z,8.40
2018-08-27T18:33:23.814Z,8.47
2018-08-27T18:35:51.064Z,10.30
2018-08-27T18:38:18.230Z,12.10
2018-08-27T18:40:45.380Z,9.03
2018-08-27T18:43:12.552Z,8.90
2018-08-27T18:45:39.697Z,12.50
2018-08-27T18:48:06.849Z,10.10
2018-08-27T18:50:34.005Z,7.80
2018-08-27T18:53:01.197Z,9.43
2018-08-27T18:55:28.343Z,11.43
2018-08-27T18:57:55.506Z,7.23
2018-08-27T19:00:22.722Z,10.73
2018-08-27T19:02:50.666Z,8.60
2018-08-27T19:05:22.551Z,9.17
2018-08-27T19:07:51.483Z,9.47
2018-08-27T19:10:18.645Z,9.50
2018-08-27T19:12:46.001Z,9.97
2018-08-27T19:15:13.122Z,9.50
2018-08-27T19:17:41.824Z,9.87
2018-08-27T19:20:18.810Z,8.57
2018-08-27T19:22:48.304Z,9.50
2018-08-27T19:25:15.628Z,9.77
2018-08-27T19:27:43.427Z,9.50
2018-08-27T19:30:11.743Z,8.73
2018-08-27T19:32:40.160Z,12.63
2018-08-27T19:35:07.273Z,9.90
2018-08-27T19:37:34.429Z,9.00
2018-08-27T19:40:01.576Z,10.43
2018-08-27T19:42:28.702Z,11.27
2018-08-27T19:44:55.843Z,9.63
2018-08-27T19:47:22.993Z,13.13
2018-08-27T19:49:50.119Z,8.90
2018-08-27T19:52:17.257Z,13.80
2018-08-27T19:54:44.384Z,15.27
2018-08-27T19:57:11.565Z,11.73
2018-08-27T19:59:38.701Z,14.00
2018-08-27T20:02:05.858Z,13.17
2018-08-27T20:04:32.996Z,11.17
2018-08-27T20:07:00.148Z,10.93
2018-08-27T20:09:27.301Z,14.70
2018-08-27T20:11:54.423Z,18.97
2018-08-27T20:14:21.572Z,11.93
2018-08-27T20:16:48.901Z,9.20
2018-08-27T20:19:15.907Z,12.03
2018-08-27T20:21:43.069Z,10.43
2018-08-27T20:24:10.225Z,11.53
2018-08-27T20:26:37.355Z,8.43
2018-08-27T20:29:04.505Z,12.00
2018-08-27T20:31:31.652Z,9.47
2018-08-27T20:33:58.782Z,12.70
2018-08-27T20:36:26.060Z,9.90
2018-08-27T20:38:53.325Z,6.93
2018-08-27T20:41:20.541Z,10.63
2018-08-27T20:43:47.674Z,9.03
2018-08-27T20:46:14.820Z,8.20
2018-08-27T20:48:41.969Z,6.70
2018-08-27T20:51:09.101Z,8.70
2018-08-27T20:53:36.294Z,6.57
2018-08-27T20:56:03.429Z,10.43
2018-08-27T20:58:30.684Z,9.20
2018-08-27T21:00:57.885Z,7.60
2018-08-27T21:03:25.134Z,8.70
2018-08-27T21:05:52.236Z,5.87
2018-08-27T21:08:19.397Z,6.50
2018-08-27T21:10:46.690Z,6.77
2018-08-27T21:13:13.772Z,6.97
2018-08-27T21:15:40.913Z,6.10
2018-08-27T21:18:08.065Z,8.13
2018-08-27T21:20:35.211Z,6.17
2018-08-27T21:23:02.373Z,7.37
2018-08-27T21:25:29.652Z,5.20
2018-08-27T21:27:56.828Z,5.00
2018-08-27T21:30:23.989Z,4.50
2018-08-27T21:32:51.125Z,7.53
2018-08-27T21:35:18.265Z,4.77
2018-08-27T21:37:45.397Z,6.10
2018-08-27T21:40:12.573Z,12.20
2018-08-27T21:42:39.712Z,7.33
2018-08-27T21:45:06.907Z,8.20
2018-08-27T21:47:34.032Z,6.87
2018-08-27T21:50:01.197Z,5.90
2018-08-27T21:52:28.721Z,7.40
2018-08-27T21:54:55.884Z,7.70
2018-08-27T21:57:23.017Z,6.17
2018-08-27T21:59:50.153Z,7.83
2018-08-27T22:02:22.672Z,4.93
2018-08-27T22:04:49.817Z,4.90
2018-08-27T22:07:16.980Z,7.87
2018-08-27T22:09:44.148Z,5.80
2018-08-27T22:12:11.289Z,7.73
2018-08-27T22:14:38.562Z,5.23
2018-08-27T22:17:06.128Z,5.80
2018-08-27T22:19:33.241Z,5.23
2018-08-27T22:22:00.491Z,6.40
2018-08-27T22:24:27.507Z,5.33
2018-08-27T22:26:54.715Z,4.57
2018-08-27T22:29:21.837Z,6.50
2018-08-27T22:31:49.080Z,6.37
2018-08-27T22:34:16.232Z,6.57
2018-08-27T22:36:43.375Z,10.43
2018-08-27T22:39:10.517Z,6.60
2018-08-27T22:41:37.650Z,5.07
2018-08-27T22:44:04.789Z,5.70
2018-08-27T22:46:31.920Z,6.40
2018-08-27T22:48:59.061Z,4.50
2018-08-27T22:51:26.193Z,4.10
2018-08-27T22:53:53.333Z,5.73
2018-08-27T22:56:20.465Z,6.83
2018-08-27T22:58:47.613Z,6.03
2018-08-27T23:01:14.743Z,4.97
2018-08-27T23:03:47.248Z,5.10
2018-08-27T23:06:14.404Z,4.73
2018-08-27T23:08:41.528Z,5.00
2018-08-27T23:11:08.660Z,8.80
2018-08-27T23:13:35.804Z,5.53
2018-08-27T23:16:07.297Z,5.27
2018-08-27T23:18:34.521Z,6.63
2018-08-27T23:21:01.651Z,4.63
2018-08-27T23:23:28.779Z,7.17
2018-08-27T23:25:55.943Z,5.00
2018-08-27T23:28:23.056Z,8.70
2018-08-27T23:30:50.192Z,5.17
2018-08-27T23:33:17.328Z,9.10
2018-08-27T23:35:44.478Z,5.33
2018-08-27T23:38:11.592Z,5.60
2018-08-27T23:40:38.738Z,4.83
2018-08-27T23:43:05.889Z,5.10
2018-08-27T23:45:33.016Z,8.13
2018-08-27T23:48:00.221Z,8.20
2018-08-27T23:50:27.369Z,6.83
2018-08-27T23:52:54.521Z,5.60
2018-08-27T23:55:21.672Z,8.70
2018-08-27T23:57:48.937Z,9.60
